Tiempo atmosférico en la estación meteorológica de Mula, Murcia (290 m.)



Fecha
DESCASC
Temp. máxima en grados centígrados (hora)
DESCASC
Temp. mínima en grados centígrados (hora)
DESCASC
Temp. media en grados centígrados
DESCASC
Racha de viento máxima en m/sg (hora)
DESCASC
Velocidad máxima media en intervalos de 10 minutos(hora)
DESCASC
Precipitaciones diarias en mm
DESCASC
Precipitaciones de 00:00 a 06:00 en mm
DESCASC
Precipitaciones de 06:00 a 12:00 en mm
DESCASC
Precipitaciones de 12:00 a 18:00 en mm
DESCASC
Precipitaciones de 18:00 a 24:00 en mm
DESCASC
16-06-2019 25.5 (13:40) 13.4 (07:10) 19.4 7.78 (14:00) 4.17 (16:40) 0 0 0 0 0
15-06-2019 31 (16:50) 18.7 (06:50) 24.9 11.39 (03:30) 7.5 (02:40) 0 0 0 0 0
14-06-2019 30.3 (15:20) 17.8 (08:10) 24 8.33 (16:40) 5.28 (04:50) 0.2 0 0.2 0 0
13-06-2019 26.1 (15:10) 17.7 (00:00) 21.9 9.72 (16:40) 5.28 (15:20) 0 0 0 0 0
12-06-2019 25 (15:20) 16.1 (00:00) 20.6 11.67 (18:30) 6.11 (18:10) 0 0 0 0 0
11-06-2019 29.4 (14:30) 12.8 (00:00) 21.1 12.78 (19:40) 7.5 (19:40) 0 0 0 0 0
10-06-2019 32.7 (15:20) 19.3 (00:00) 26 10.28 (17:00) 5.28 (04:20) 0 0 0 0 0
09-06-2019 30.1 (16:20) 16.9 (00:00) 23.5 10 (18:30) 5 (18:30) 0 0 0 0 0
08-06-2019 26.1 (15:00) 13.8 (00:00) 20 9.44 (15:10) 5.56 (14:20) 0 0 0 0 0
07-06-2019 30.5 (16:20) 14.1 (00:00) 22.3 9.44 (16:50) 5 (10:50) 0 0 0 0 0
06-06-2019 28 (14:10) 13.5 (00:00) 20.8 11.94 (17:20) 6.39 (16:50) 0 0 0 0 0
05-06-2019 29.6 (16:30) 14.4 (00:00) 22 13.89 (13:30) 8.89 (12:00) 0 0 0 0 0
04-06-2019 32 (16:20) 12.7 (00:00) 22.3 8.33 (15:20) 4.44 (16:40) 0 0 0 0 0
03-06-2019 31.6 (15:40) 12.5 (00:00) 22.1 9.17 (17:20) 5.56 (16:20) 0 0 0 0 0
02-06-2019 30.1 (16:40) 11.5 (00:00) 20.8 7.78 (17:30) 5 (20:50) 0 0 0 0 0
01-06-2019 28.1 (16:10) 11.3 (00:00) 19.7 8.61 (18:50) 4.72 (18:30) 0 0 0 0 0
31-05-2019 26.7 (16:10) 11.5 (00:00) 19.1 9.17 (15:40) 5.28 (17:00) 0 0 0 0 0
30-05-2019 26.1 (16:30) 10.9 (00:00) 18.5 8.06 (19:00) 4.72 (19:00) 0 0 0 0 0
29-05-2019 26 (15:20) 13.8 (00:00) 19.9 10.56 (16:50) 6.39 (16:10) 0 0 0 0 0
28-05-2019 28.8 (16:10) 14.4 (00:00) 21.6 9.44 (17:10) 6.11 (17:10) 0 0 0 0 0
27-05-2019 32.1 (16:10) 12.3 (00:00) 22.2 8.61 (18:20) 4.72 (18:20) 0.6 0 0 0 0.6
26-05-2019 26.8 (14:50) 11 (00:00) 18.9 11.11 (13:30) 5.83 (17:20) 0 0 0 0 0
25-05-2019 22.4 (16:20) 12 (00:00) 17.2 9.72 (09:50) 6.67 (10:30) 0 0 0 0 0
24-05-2019 23.9 (14:30) 12.9 (00:00) 18.4 10.28 (17:50) 6.39 (17:00) 2.2 0 0 0.2 2
23-05-2019 31 (16:10) 11.4 (00:00) 21.2 8.61 (19:10) 4.72 (18:50) 0 0 0 0 0
22-05-2019 28.9 (16:00) 11 (00:00) 19.9 8.06 (18:20) 4.44 (19:00) 0 0 0 0 0
21-05-2019 24.2 (14:20) 14.8 (23:59) 19.5 9.72 (17:00) 5.28 (17:00) 0 0 0 0 0

Gráficas

Temp. máximas Temp. mínimas Temp. medias Precipitaciones Rachas de viento máximas Velocidades máximas media en intervalos de 10 minutos

Datos horarios

Fecha y hora oficial Temperatura (ºC) Velocidad del viento (km/h) Dirección del viento Racha (km/h) Dirección de racha Precipitación (mm) Presión (hPa) Tendencia (hPa) Humedad (%)
2019-06-19 23:00:00 25.5 4 Nordeste 13 Nordeste 0 -- -- 36
2019-06-19 22:00:00 28 5 Este 12 Este 0 -- -- 29
2019-06-19 21:00:00 29.8 3 Sur 14 Sudeste 0 -- -- 31
2019-06-19 20:00:00 31.7 6 Sur 21 Sur 0 -- -- 26
2019-06-19 19:00:00 32.6 8 Sur 21 Sudeste 0 -- -- 24
2019-06-19 18:00:00 33.1 11 Sur 27 Sur 0 -- -- 25
2019-06-19 17:00:00 34 11 Sur 26 Sur 0 -- -- 24
2019-06-19 16:00:00 34 12 Sur 31 Sudeste 0 -- -- 25
2019-06-19 15:00:00 33.7 13 Este 25 Sudeste 0 -- -- 24
2019-06-19 14:00:00 33.3 5 Sur 20 Sudeste 0 -- -- 26
2019-06-19 13:00:00 32.2 7 Sudeste 15 Sudeste 0 -- -- 28
2019-06-19 12:00:00 30.7 4 Noroeste 20 Noroeste 0 -- -- 30
2019-06-19 11:00:00 28.9 10 Noroeste 26 Noroeste 0 -- -- 35
2019-06-19 10:00:00 25.5 14 Noroeste 24 Oeste 0 -- -- 40
2019-06-19 09:00:00 23.1 13 Oeste 28 Oeste 0 -- -- 46
2019-06-19 08:00:00 19.5 16 Oeste 27 Oeste 0 -- -- 57
2019-06-19 07:00:00 17.4 14 Oeste 22 Oeste 0 -- -- 63
2019-06-19 06:00:00 16.8 13 Oeste 19 Oeste 0 -- -- 69
2019-06-19 05:00:00 16.6 7 Oeste 14 Oeste 0 -- -- 70
2019-06-19 04:00:00 17 7 Oeste 13 Oeste 0 -- -- 71
2019-06-19 03:00:00 17.8 8 Oeste 12 Oeste 0 -- -- 70
2019-06-19 02:00:00 19.3 6 Sudoeste 7 Oeste 0 -- -- 68
2019-06-19 01:00:00 20.3 2 Este 6 Este 0 -- -- 67
2019-06-19 00:00:00 21.2 3 Nordeste 13 Nordeste 0 -- -- 61
2019-06-18 23:00:00 22.3 4 Este 16 Este 0 -- -- 53
2019-06-18 22:00:00 24.2 10 Este 19 Sudeste 0 -- -- 43
2019-06-18 21:00:00 26.6 7 Sur 21 Sudeste 0 -- -- 33
2019-06-18 20:00:00 28.2 10 Sudeste 26 Sudeste 0 -- -- 29
2019-06-18 19:00:00 29.9 11 Sur 28 Sudeste 0 -- -- 25
2019-06-18 18:00:00 31.2 12 Sur 28 Sudoeste 0 -- -- 24
2019-06-18 17:00:00 31.9 13 Sur 32 Sudeste 0 -- -- 27
2019-06-18 16:00:00 32.2 14 Sudeste 28 Sudeste 0 -- -- 28
2019-06-18 15:00:00 31.6 12 Sudeste 33 Sudeste 0 -- -- 32
2019-06-18 14:00:00 30.1 15 Sudeste 33 Este 0 -- -- 33
2019-06-18 13:00:00 28.6 10 Sudeste 26 Este 0 -- -- 34
2019-06-18 12:00:00 26.5 11 Este 22 Este 0 -- -- 34
2019-06-18 11:00:00 24.8 9 Este 17 Este 0 -- -- 36
2019-06-18 10:00:00 21.9 6 Este 12 Este 0 -- -- 42
2019-06-18 09:00:00 17.9 3 Oeste 13 Oeste 0 -- -- 51
2019-06-18 08:00:00 14.6 10 Oeste 17 Sudoeste 0 -- -- 61
2019-06-18 07:00:00 13.3 11 Oeste 17 Oeste 0 -- -- 67
2019-06-18 06:00:00 13.7 12 Sudoeste 15 Sudoeste 0 -- -- 68
2019-06-18 05:00:00 14.3 6 Oeste 15 Sudoeste 0 -- -- 69
2019-06-18 04:00:00 15.2 11 Oeste 15 Oeste 0 -- -- 67
2019-06-18 03:00:00 16.1 12 Oeste 17 Oeste 0 -- -- 62
2019-06-18 02:00:00 18 4 Sudoeste 8 Sudoeste 0 -- -- 69
2019-06-18 01:00:00 19 4 Nordeste 9 Este 0 -- -- 63
2019-06-18 00:00:00 19.9 6 Nordeste 13 Nordeste 0 -- -- 63
2019-06-17 23:00:00 22.6 7 Este 25 Sur 0 -- -- 35
2019-06-17 22:00:00 24.4 9 Sur 23 Sur 0 -- -- 28
2019-06-17 21:00:00 26.3 9 Sur 25 Sudeste 0 -- -- 30
2019-06-17 20:00:00 28.4 9 Sur 25 Sudeste 0 -- -- 30
2019-06-17 19:00:00 30 10 Sur 26 Sudeste 0 -- -- 27
2019-06-17 18:00:00 31.5 11 Sur 29 Sudeste 0 -- -- 27
2019-06-17 17:00:00 32.2 11 Sudeste 30 Sudeste 0 -- -- 27
2019-06-17 16:00:00 32.7 11 Sudeste 28 Este 0 -- -- 28
2019-06-17 15:00:00 32.7 9 Sur 25 Sudeste 0 -- -- 24
2019-06-17 14:00:00 30.9 9 Sudeste 20 Este 0 -- -- 24
2019-06-17 13:00:00 29 6 Este 17 Este 0 -- -- 31
2019-06-17 12:00:00 27.2 6 Este 15 Este 0 -- -- 35
2019-06-17 11:00:00 25.7 4 Este 9 Este 0 -- -- 39
2019-06-17 10:00:00 21.7 3 Oeste 13 Oeste 0 -- -- 55
2019-06-17 09:00:00 18.1 10 Oeste 17 Oeste 0 -- -- 64
2019-06-17 08:00:00 14.5 9 Oeste 18 Oeste 0 -- -- 72
2019-06-17 07:00:00 12.9 12 Oeste 18 Oeste 0 -- -- 77
2019-06-17 06:00:00 12.8 11 Oeste 18 Oeste 0 -- -- 77
2019-06-17 05:00:00 13.3 7 Oeste 17 Oeste 0 -- -- 76
2019-06-17 04:00:00 13.5 9 Oeste 16 Oeste 0 -- -- 75
2019-06-17 03:00:00 14.5 10 Sudoeste 14 Oeste 0 -- -- 72
2019-06-17 02:00:00 15.8 5 Oeste 13 Oeste 0 -- -- 70
2019-06-17 01:00:00 17.1 9 Oeste 14 Oeste 0 -- -- 69
2019-06-17 00:00:00 18.6 2 Norte 5 Oeste 0 -- -- 69
2019-06-16 23:00:00 19.9 2 Sudeste 5 Este 0 -- -- 65
2019-06-16 22:00:00 20.8 5 Este 14 Este 0 -- -- 65
2019-06-16 21:00:00 22 10 Este 18 Este 0 -- -- 59
2019-06-16 20:00:00 22.9 13 Este 24 Este 0 -- -- 57
2019-06-16 19:00:00 24.4 11 Este 26 Este 0 -- -- 54
2019-06-16 18:00:00 24.5 13 Este 27 Este 0 -- -- 53
2019-06-16 17:00:00 24.2 14 Este 25 Este 0 -- -- 50
2019-06-16 16:00:00 24.6 13 Este 24 Sudeste 0 -- -- 48
2019-06-16 15:00:00 25.1 14 Este 26 Este 0 -- -- 42
2019-06-16 14:00:00 25.4 13 Este 28 Este 0 -- -- 46
2019-06-16 13:00:00 24.8 12 Este 25 Este 0 -- -- 45
2019-06-16 12:00:00 23.3 10 Este 19 Sudeste 0 -- -- 39
2019-06-16 11:00:00 23.3 10 Este 21 Este 0 -- -- 36
2019-06-16 10:00:00 22.3 8 Este 16 Sudeste 0 -- -- 38
2019-06-16 09:00:00 18.2 6 Oeste 15 Oeste 0 -- -- 56
2019-06-16 08:00:00 14.5 10 Oeste 16 Oeste 0 -- -- 64
2019-06-16 07:00:00 13.5 10 Oeste 18 Oeste 0 -- -- 64
2019-06-16 06:00:00 14.2 14 Oeste 18 Oeste 0 -- -- 63
2019-06-16 05:00:00 15.1 13 Oeste 18 Oeste 0 -- -- 60
2019-06-16 04:00:00 15.9 12 Oeste 17 Oeste 0 -- -- 57
2019-06-16 03:00:00 17.3 7 Sudoeste 10 Sudoeste 0 -- -- 54
2019-06-16 02:00:00 18.7 2 Oeste 8 Nordeste 0 -- -- 50
2019-06-16 01:00:00 19.6 2 Nordeste 8 Nordeste 0 -- -- 46
2019-06-16 00:00:00 20.5 5 Este 15 Este 0 -- -- 45
2019-06-15 23:00:00 21.8 5 Este 8 Este 0 -- -- 38
2019-06-15 22:00:00 23.2 4 Este 15 Sudeste 0 -- -- 35
2019-06-15 21:00:00 25 6 Sudeste 22 Sur 0 -- -- 33
2019-06-15 20:00:00 26.7 9 Sur 24 Sudeste 0 -- -- 31
2019-06-15 19:00:00 28.4 12 Sur 24 Sudeste 0 -- -- 30
2019-06-15 18:00:00 29.9 15 Sur 28 Sudeste 0 -- -- 30
2019-06-15 17:00:00 30.9 13 Sudeste 24 Sudeste 0 -- -- 29
2019-06-15 16:00:00 30.3 9 Este 26 Este 0 -- -- 24
2019-06-15 15:00:00 29.5 10 Sudeste 21 Sudeste 0 -- -- 24
2019-06-15 14:00:00 29.2 6 Sur 17 Sudeste 0 -- -- 25
2019-06-15 13:00:00 28.2 8 Noroeste 19 Norte 0 -- -- 27
2019-06-15 12:00:00 25.9 12 Noroeste 27 Noroeste 0 -- -- 30
2019-06-15 11:00:00 24 15 Noroeste 33 Noroeste 0 -- -- 34
2019-06-15 10:00:00 21.9 19 Noroeste 37 Norte 0 -- -- 36
2019-06-15 09:00:00 20.5 20 Noroeste 35 Noroeste 0 -- -- 38
2019-06-15 08:00:00 19.2 15 Noroeste 32 Noroeste 0 -- -- 40
2019-06-15 07:00:00 18.7 19 Noroeste 36 Noroeste 0 -- -- 42
2019-06-15 06:00:00 19.1 12 Noroeste 31 Noroeste 0 -- -- 44
2019-06-15 05:00:00 19.8 11 Noroeste 33 Noroeste 0 -- -- 41
2019-06-15 04:00:00 20.4 14 Noroeste 41 Noroeste 0 -- -- 37
2019-06-15 03:00:00 21.3 23 Noroeste 40 Noroeste 0 -- -- 34
2019-06-15 02:00:00 21.8 20 Noroeste 32 Noroeste 0 -- -- 36
2019-06-15 01:00:00 20.7 5 Oeste 18 Sudoeste 0 -- -- 42
2019-06-15 00:00:00 20.7 12 Oeste 14 Oeste 0 -- -- 54
2019-06-14 23:00:00 22.5 4 Noroeste 7 Sur 0 -- -- 50
2019-06-14 22:00:00 24.1 3 Sur 14 Sudeste 0 -- -- 44
2019-06-14 21:00:00 25.3 6 Este 18 Este 0 -- -- 40
2019-06-14 20:00:00 26 7 Este 26 Sudeste 0 -- -- 41
2019-06-14 19:00:00 27.8 15 Sudeste 29 Sudeste 0 -- -- 40
2019-06-14 18:00:00 28.9 11 Sur 30 Sur 0 -- -- 40
2019-06-14 17:00:00 29.9 13 Sur 30 Sudeste 0 -- -- 38
2019-06-14 16:00:00 30.1 11 Sudeste 27 Sudeste 0 -- -- 40
2019-06-14 15:00:00 29.3 14 Sudeste 27 Sudeste 0 -- -- 43
2019-06-14 14:00:00 28.7 10 Sudeste 22 Sudeste 0 -- -- 43
2019-06-14 13:00:00 28.3 4 Nordeste 20 Sudeste 0 -- -- 38
2019-06-14 12:00:00 25.5 4 Sudeste 12 Sudeste 0 -- -- 49
2019-06-14 11:00:00 23.3 4 Noroeste 10 Oeste 0 -- -- 63
2019-06-14 10:00:00 19.1 5 Noroeste 10 Norte 0 -- -- 79
2019-06-14 09:00:00 18.2 5 Sudoeste 19 Noroeste 0 -- -- 80
2019-06-14 08:00:00 17.9 14 Noroeste 24 Noroeste 0.2 -- -- 80
2019-06-14 07:00:00 18.4 4 Sudoeste 11 Sur 0 -- -- 72
2019-06-14 06:00:00 18.5 5 Noroeste 18 Oeste 0 -- -- 67
2019-06-14 05:00:00 18.8 14 Oeste 29 Oeste 0 -- -- 68
2019-06-14 04:00:00 18.7 16 Noroeste 25 Noroeste 0 -- -- 69
2019-06-14 03:00:00 19.2 6 Noroeste 19 Noroeste 0 -- -- 64
2019-06-14 02:00:00 18.9 11 Noroeste 15 Noroeste 0 -- -- 65
2019-06-14 01:00:00 18.4 7 Oeste 12 Sudoeste 0 -- -- 67
2019-06-14 00:00:00 19 2 Nordeste 8 Sudeste 0 -- -- 63
2019-06-13 23:00:00 20 3 Sudeste 13 Sudeste 0 -- -- 60
2019-06-13 22:00:00 20.7 8 Sudeste 19 Sudeste 0 -- -- 57
2019-06-13 21:00:00 21.6 10 Sudeste 22 Este 0 -- -- 55
2019-06-13 20:00:00 22.9 13 Este 27 Este 0 -- -- 53
2019-06-13 19:00:00 23.9 14 Sudeste 31 Este 0 -- -- 50
2019-06-13 18:00:00 24.9 18 Este 32 Sudeste 0 -- -- 48
2019-06-13 17:00:00 25.7 13 Este 35 Este 0 -- -- 44
2019-06-13 16:00:00 25.7 17 Este 34 Sudeste 0 -- -- 45
2019-06-13 15:00:00 25.8 16 Este 32 Este 0 -- -- 45
2019-06-13 14:00:00 25.3 12 Este 28 Este 0 -- -- 47
2019-06-13 13:00:00 23.8 12 Este 27 Este 0 -- -- 51
2019-06-13 12:00:00 22.4 12 Nordeste 30 Este 0 -- -- 57
2019-06-13 11:00:00 21.1 13 Este 24 Este 0 -- -- 61
2019-06-13 10:00:00 19.5 12 Este 21 Este 0 -- -- 74
2019-06-13 09:00:00 18.8 14 Nordeste 26 Este 0 -- -- 79
2019-06-13 08:00:00 18.3 13 Este 23 Este 0 -- -- 84
2019-06-13 07:00:00 18.1 0 Calma 5 Sudoeste 0 -- -- 81
2019-06-13 06:00:00 17.9 3 Sudoeste 7 Noroeste 0 -- -- 82
2019-06-13 05:00:00 18.1 4 Norte 6 Norte 0 -- -- 80
2019-06-13 04:00:00 18.1 4 Nordeste 8 Nordeste 0 -- -- 82
2019-06-13 03:00:00 17.9 4 Nordeste 12 Nordeste 0 -- -- 82
2019-06-13 02:00:00 17.9 3 Nordeste 10 Nordeste 0 -- -- 81
2019-06-13 01:00:00 17.7 7 Este 15 Este 0 -- -- 81
2019-06-13 00:00:00 18.1 9 Este 18 Este 0 -- -- 78
2019-06-12 23:00:00 18.2 11 Este 29 Este 0 -- -- 77
2019-06-12 22:00:00 18.4 14 Este 27 Sudeste 0 -- -- 76
2019-06-12 21:00:00 19.6 16 Este 33 Sudeste 0 -- -- 69
2019-06-12 20:00:00 21.2 17 Este 35 Este 0 -- -- 61
2019-06-12 19:00:00 22.8 19 Este 42 Este 0 -- -- 53
2019-06-12 18:00:00 24 18 Este 36 Este 0 -- -- 47
2019-06-12 17:00:00 24.6 16 Este 31 Sudeste 0 -- -- 42
2019-06-12 16:00:00 24.7 21 Este 35 Este 0 -- -- 37
2019-06-12 15:00:00 24.5 18 Este 30 Este 0 -- -- 37
2019-06-12 14:00:00 24.2 12 Este 25 Sudeste 0 -- -- 35
2019-06-12 13:00:00 22.9 7 Este 20 Este 0 -- -- 38
2019-06-12 12:00:00 21.5 12 Este 25 Nordeste 0 -- -- 41
2019-06-12 11:00:00 20.2 9 Este 23 Este 0 -- -- 43
2019-06-12 10:00:00 18.3 11 Este 22 Este 0 -- -- 53
2019-06-12 09:00:00 17.2 7 Este 17 Este 0 -- -- 66
2019-06-12 08:00:00 16.7 4 Este 9 Nordeste 0 -- -- 71
2019-06-12 07:00:00 16.1 5 Este 10 Este 0 -- -- 73
2019-06-12 06:00:00 16.3 4 Este 9 Este 0 -- -- 73
2019-06-12 05:00:00 16.3 7 Este 12 Este 0 -- -- 75
2019-06-12 04:00:00 16.8 8 Sudeste 13 Sudeste 0 -- -- 75
2019-06-12 03:00:00 17.6 5 Sudeste 10 Sudeste 0 -- -- 74
2019-06-12 02:00:00 17.7 3 Sudeste 10 Sudeste 0 -- -- 74
2019-06-12 01:00:00 17.9 4 Sudeste 10 Sudeste 0 -- -- 73
2019-06-12 00:00:00 18.2 0 Calma 12 Nordeste 0 -- -- 73
2019-06-11 23:00:00 18.2 9 Nordeste 29 Nordeste 0 -- -- 73
2019-06-11 22:00:00 18.8 14 Este 28 Este 0 -- -- 75
2019-06-11 21:00:00 19.7 16 Este 43 Nordeste 0 -- -- 73
2019-06-11 20:00:00 21.1 27 Nordeste 46 Este 0 -- -- 68
2019-06-11 19:00:00 22.9 26 Este 42 Este 0 -- -- 60
2019-06-11 18:00:00 27.9 14 Sudeste 31 Este 0 -- -- 42
2019-06-11 17:00:00 27.5 16 Este 38 Este 0 -- -- 41
2019-06-11 16:00:00 28.2 22 Este 39 Este 0 -- -- 45
2019-06-11 15:00:00 28.8 17 Este 33 Este 0 -- -- 33
2019-06-11 14:00:00 29.1 11 Este 27 Este 0 -- -- 29
2019-06-11 13:00:00 27.5 12 Este 23 Sudeste 0 -- -- 30
2019-06-11 12:00:00 26.1 14 Este 25 Este 0 -- -- 35
2019-06-11 11:00:00 24.6 10 Este 18 Este 0 -- -- 38
2019-06-11 10:00:00 22.9 6 Norte 18 Norte 0 -- -- 35
2019-06-11 09:00:00 18.5 6 Oeste 21 Oeste 0 -- -- 54
2019-06-11 08:00:00 14.6 13 Oeste 19 Oeste 0 -- -- 67
2019-06-11 07:00:00 12.8 11 Oeste 15 Oeste 0 -- -- 78
2019-06-11 06:00:00 13.6 11 Oeste 15 Oeste 0 -- -- 75
2019-06-11 05:00:00 14.3 8 Oeste 13 Oeste 0 -- -- 72
2019-06-11 04:00:00 15.1 10 Oeste 15 Oeste 0 -- -- 71
2019-06-11 03:00:00 16.1 9 Oeste 17 Oeste 0 -- -- 69
2019-06-11 02:00:00 17.7 3 Oeste 4 Oeste 0 -- -- 66
2019-06-11 01:00:00 18.9 2 Sudoeste 11 Este 0 -- -- 62
2019-06-11 00:00:00 19.6 7 Este 12 Este 0 -- -- 58
2019-06-10 23:00:00 20.6 6 Este 16 Nordeste 0 -- -- 55
2019-06-10 22:00:00 22 10 Nordeste 25 Nordeste 0 -- -- 53
2019-06-10 21:00:00 25 9 Sur 31 Sudeste 0 -- -- 30
2019-06-10 20:00:00 26.4 11 Sur 33 Sudeste 0 -- -- 29
2019-06-10 19:00:00 27.2 16 Sudeste 33 Sudeste 0 -- -- 27
2019-06-10 18:00:00 29.3 15 Sur 34 Sur 0 -- -- 25
2019-06-10 17:00:00 31.1 17 Sur 37 Sudeste 0 -- -- 24
2019-06-10 16:00:00 31.7 4 Este 17 Este 0 -- -- 21
2019-06-10 15:00:00 32.3 9 Norte 23 Oeste 0 -- -- 20
2019-06-10 14:00:00 31.3 8 Nordeste 22 Noroeste 0 -- -- 20
2019-06-10 13:00:00 30.2 7 Norte 28 Noroeste 0 -- -- 23
2019-06-10 12:00:00 28.6 14 Noroeste 25 Norte 0 -- -- 25
2019-06-10 11:00:00 26.4 14 Noroeste 30 Norte 0 -- -- 30
2019-06-10 10:00:00 23.5 17 Noroeste 26 Noroeste 0 -- -- 34
2019-06-10 09:00:00 21.8 12 Oeste 24 Noroeste 0 -- -- 36
2019-06-10 08:00:00 19.9 6 Sudoeste 15 Sudoeste 0 -- -- 42
2019-06-10 07:00:00 20.2 5 Oeste 20 Noroeste 0 -- -- 38
2019-06-10 06:00:00 20.8 10 Oeste 31 Noroeste 0 -- -- 37
2019-06-10 05:00:00 22.2 15 Oeste 34 Oeste 0 -- -- 37
2019-06-10 04:00:00 22.2 18 Noroeste 31 Noroeste 0 -- -- 37
2019-06-10 03:00:00 19.5 11 Oeste 21 Sudoeste 0 -- -- 58
2019-06-10 02:00:00 19.6 6 Oeste 16 Oeste 0 -- -- 65
2019-06-10 01:00:00 20.1 9 Oeste 17 Oeste 0 -- -- 71
2019-06-10 00:00:00 20.3 8 Sudoeste 9 Sudoeste 0 -- -- 72
2019-06-09 23:00:00 21 4 Norte 7 Nordeste 0 -- -- 68
2019-06-09 22:00:00 22.3 5 Este 16 Sur 0 -- -- 65
2019-06-09 21:00:00 23.7 8 Sur 29 Sur 0 -- -- 61
2019-06-09 20:00:00 25.1 13 Sur 35 Sur 0 -- -- 54
2019-06-09 19:00:00 26.5 13 Sur 36 Sudeste 0 -- -- 47
2019-06-09 18:00:00 29 12 Sur 29 Sudoeste 0 -- -- 42
2019-06-09 17:00:00 29.6 12 Sudeste 25 Sudeste 0 -- -- 39
2019-06-09 16:00:00 29.1 9 Este 27 Sudeste 0 -- -- 36
2019-06-09 15:00:00 28.2 6 Sudeste 20 Sudeste 0 -- -- 37
2019-06-09 14:00:00 27 6 Sudeste 17 Sudeste 0 -- -- 40
2019-06-09 13:00:00 25.2 4 Sudeste 10 Sudeste 0 -- -- 45
2019-06-09 12:00:00 23.1 2 Oeste 10 Sudoeste 0 -- -- 52
2019-06-09 11:00:00 21.6 6 Sudoeste 14 Oeste 0 -- -- 57
2019-06-09 10:00:00 20 6 Sudoeste 12 Oeste 0 -- -- 63
2019-06-09 09:00:00 18.5 5 Oeste 10 Noroeste 0 -- -- 68
2019-06-09 08:00:00 17.4 4 Oeste 8 Oeste 0 -- -- 69
2019-06-09 07:00:00 16.9 5 Sudoeste 14 Sudoeste 0 -- -- 69
2019-06-09 06:00:00 17 10 Oeste 16 Oeste 0 -- -- 68
2019-06-09 05:00:00 17.1 2 Sur 18 Oeste 0 -- -- 68
2019-06-09 04:00:00 17.2 11 Oeste 15 Oeste 0 -- -- 67
2019-06-09 03:00:00 18.2 9 Oeste 13 Oeste 0 -- -- 65
2019-06-09 02:00:00 18.5 5 Oeste 11 Oeste 0 -- -- 64
2019-06-09 01:00:00 19.2 5 Noroeste 7 Sudeste 0 -- -- 61
2019-06-09 00:00:00 19.9 4 Sudeste 9 Sudeste 0 -- -- 58
2019-06-08 23:00:00 20.4 2 Sudeste 9 Sur 0 -- -- 58
2019-06-08 22:00:00 21.1 2 Sudeste 12 Sudeste 0 -- -- 56
2019-06-08 21:00:00 22 5 Este 25 Este 0 -- -- 55
2019-06-08 20:00:00 23.2 11 Este 26 Sudeste 0 -- -- 54
2019-06-08 19:00:00 24.1 14 Este 29 Sudeste 0 -- -- 53
2019-06-08 18:00:00 24.6 15 Este 32 Sudeste 0 -- -- 52
2019-06-08 17:00:00 25.5 15 Este 31 Este 0 -- -- 49
2019-06-08 16:00:00 25.6 15 Este 34 Este 0 -- -- 48
2019-06-08 15:00:00 26.1 17 Sudeste 33 Este 0 -- -- 47
2019-06-08 14:00:00 25.8 18 Este 34 Sudeste 0 -- -- 48
2019-06-08 13:00:00 25.4 14 Este 33 Este 0 -- -- 47
2019-06-08 12:00:00 25.1 15 Este 27 Este 0 -- -- 39
2019-06-08 11:00:00 24.3 9 Este 23 Este 0 -- -- 41
2019-06-08 10:00:00 22.2 5 Sur 14 Oeste 0 -- -- 46
2019-06-08 09:00:00 18.4 11 Oeste 16 Oeste 0 -- -- 56
2019-06-08 08:00:00 15 9 Oeste 19 Oeste 0 -- -- 67
2019-06-08 07:00:00 13.8 13 Oeste 18 Oeste 0 -- -- 71
2019-06-08 06:00:00 14.7 8 Oeste 17 Oeste 0 -- -- 69
2019-06-08 05:00:00 15.1 13 Oeste 19 Oeste 0 -- -- 70
2019-06-08 04:00:00 15.7 11 Sudoeste 13 Oeste 0 -- -- 68
2019-06-08 03:00:00 17.1 8 Oeste 12 Oeste 0 -- -- 66
2019-06-08 02:00:00 18.6 4 Sudoeste 6 Sudoeste 0 -- -- 62
2019-06-08 01:00:00 19.6 4 Nordeste 21 Nordeste 0 -- -- 60
2019-06-08 00:00:00 20.5 9 Nordeste 22 Nordeste 0 -- -- 52
2019-06-07 23:00:00 21.3 3 Norte 5 Nordeste 0 -- -- 41
2019-06-07 22:00:00 23.2 3 Este 15 Sudeste 0 -- -- 34
2019-06-07 21:00:00 24.8 8 Sudeste 16 Sur 0 -- -- 32
2019-06-07 20:00:00 26.3 7 Sur 24 Sudeste 0 -- -- 30
2019-06-07 19:00:00 27.4 11 Sur 27 Sudeste 0 -- -- 32
2019-06-07 18:00:00 28.8 11 Sur 26 Sur 0 -- -- 32
2019-06-07 17:00:00 29.6 14 Sur 34 Sur 0 -- -- 33
2019-06-07 16:00:00 30 11 Sudeste 28 Sudeste 0 -- -- 30
2019-06-07 15:00:00 29 10 Este 24 Este 0 -- -- 30
2019-06-07 14:00:00 28 9 Sudeste 21 Sudeste 0 -- -- 32
2019-06-07 13:00:00 28.3 9 Sudoeste 25 Noroeste 0 -- -- 32
2019-06-07 12:00:00 26.5 7 Norte 21 Norte 0 -- -- 34
2019-06-07 11:00:00 24.4 15 Norte 27 Norte 0 -- -- 39
2019-06-07 10:00:00 20.7 15 Noroeste 25 Oeste 0 -- -- 48
2019-06-07 09:00:00 18.3 13 Noroeste 28 Oeste 0 -- -- 58
2019-06-07 08:00:00 15 8 Oeste 17 Oeste 0 -- -- 86
2019-06-07 07:00:00 14.1 10 Sudoeste 16 Oeste 0 -- -- 87
2019-06-07 06:00:00 14.5 9 Sudoeste 14 Sudoeste 0 -- -- 89
2019-06-07 05:00:00 15.3 8 Oeste 10 Sudoeste 0 -- -- 87
2019-06-07 04:00:00 16 4 Noroeste 7 Noroeste 0 -- -- 87
2019-06-07 03:00:00 16.6 3 Nordeste 13 Este 0 -- -- 87
2019-06-07 02:00:00 17.5 8 Este 15 Nordeste 0 -- -- 86
2019-06-07 01:00:00 17.8 9 Este 15 Nordeste 0 -- -- 84
2019-06-07 00:00:00 18.2 8 Este 18 Este 0 -- -- 82
2019-06-06 23:00:00 19.2 9 Nordeste 23 Este 0 -- -- 73
2019-06-06 22:00:00 20.8 15 Este 26 Este 0 -- -- 67
2019-06-06 21:00:00 22.8 14 Este 28 Este 0 -- -- 56
2019-06-06 20:00:00 24.7 13 Este 35 Este 0 -- -- 46
2019-06-06 19:00:00 25.2 20 Este 37 Este 0 -- -- 46
2019-06-06 18:00:00 26.1 22 Este 43 Este 0 -- -- 43
2019-06-06 17:00:00 26.7 21 Este 36 Este 0 -- -- 37
2019-06-06 16:00:00 27.3 19 Este 41 Este 0 -- -- 35
2019-06-06 15:00:00 27.3 19 Este 38 Este 0 -- -- 36
2019-06-06 14:00:00 27.4 8 Sudeste 29 Sudeste 0 -- -- 23
2019-06-06 13:00:00 26 13 Este 26 Este 0 -- -- 23
2019-06-06 12:00:00 25.1 13 Este 20 Este 0 -- -- 24
2019-06-06 11:00:00 24.7 5 Sudoeste 14 Sudoeste 0 -- -- 25
2019-06-06 10:00:00 21.4 11 Oeste 19 Oeste 0 -- -- 32
2019-06-06 09:00:00 18.1 13 Oeste 22 Oeste 0 -- -- 37
2019-06-06 08:00:00 14.2 14 Oeste 25 Noroeste 0 -- -- 46
2019-06-06 07:00:00 13.8 15 Oeste 22 Oeste 0 -- -- 43
2019-06-06 06:00:00 13.7 13 Oeste 21 Sudoeste 0 -- -- 43
2019-06-06 05:00:00 14.1 15 Oeste 22 Oeste 0 -- -- 43
2019-06-06 04:00:00 14.6 16 Oeste 23 Oeste 0 -- -- 41
2019-06-06 03:00:00 15.1 15 Oeste 22 Oeste 0 -- -- 40
2019-06-06 02:00:00 16.5 12 Oeste 19 Oeste 0 -- -- 38
2019-06-06 01:00:00 18.2 13 Oeste 19 Oeste 0 -- -- 35
2019-06-06 00:00:00 20.4 3 Nordeste 17 Oeste 0 -- -- 26
2019-06-05 23:00:00 21.7 7 Noroeste 17 Noroeste 0 -- -- 25
2019-06-05 22:00:00 23.1 10 Noroeste 23 Noroeste 0 -- -- 23
2019-06-05 21:00:00 24.5 7 Noroeste 28 Norte 0 -- -- 23
2019-06-05 20:00:00 25.9 18 Noroeste 31 Oeste 0 -- -- 21
2019-06-05 19:00:00 26.8 21 Noroeste 38 Noroeste 0 -- -- 20
2019-06-05 18:00:00 28.2 23 Noroeste 42 Noroeste 0 -- -- 19
2019-06-05 17:00:00 29.4 25 Norte 44 Norte 0 -- -- 17
2019-06-05 16:00:00 29 27 Noroeste 43 Noroeste 0 -- -- 18
2019-06-05 15:00:00 27.3 27 Noroeste 46 Noroeste 0 -- -- 19
2019-06-05 14:00:00 27.2 26 Norte 50 Noroeste 0 -- -- 19
2019-06-05 13:00:00 27.3 31 Noroeste 48 Noroeste 0 -- -- 18
2019-06-05 12:00:00 26.6 32 Noroeste 45 Noroeste 0 -- -- 25
2019-06-05 11:00:00 25.6 19 Oeste 37 Oeste 0 -- -- 31
2019-06-05 10:00:00 24.3 18 Oeste 33 Oeste 0 -- -- 39
2019-06-05 09:00:00 22.8 18 Oeste 37 Oeste 0 -- -- 46
2019-06-05 08:00:00 20.1 15 Oeste 27 Oeste 0 -- -- 56
2019-06-05 07:00:00 14.8 5 Sudoeste 15 Oeste 0 -- -- 79
2019-06-05 06:00:00 14.5 5 Sudoeste 13 Sudoeste 0 -- -- 80
2019-06-05 05:00:00 14.6 7 Oeste 13 Oeste 0 -- -- 79
2019-06-05 04:00:00 15.5 8 Oeste 12 Sudoeste 0 -- -- 76
2019-06-05 03:00:00 16.2 6 Sudoeste 13 Sudoeste 0 -- -- 73
2019-06-05 02:00:00 17.5 8 Oeste 11 Sudoeste 0 -- -- 74
2019-06-05 01:00:00 18.7 2 Este 6 Nordeste 0 -- -- 73
2019-06-05 00:00:00 20 0 Calma 7 Nordeste 0 -- -- 67
2019-06-04 23:00:00 21.3 5 Este 17 Este 0 -- -- 63
2019-06-04 22:00:00 22.6 2 Sudeste 12 Sudeste 0 -- -- 49
2019-06-04 21:00:00 24.3 5 Sudeste 19 Este 0 -- -- 44
2019-06-04 20:00:00 26.5 9 Sudeste 24 Sudeste 0 -- -- 39
2019-06-04 19:00:00 28 11 Sur 28 Sudeste 0 -- -- 35
2019-06-04 18:00:00 30.2 11 Sur 26 Sudeste 0 -- -- 32
2019-06-04 17:00:00 31.3 15 Sudeste 26 Sudeste 0 -- -- 33
2019-06-04 16:00:00 31.9 13 Sudeste 30 Sudeste 0 -- -- 31
2019-06-04 15:00:00 31.3 13 Sudeste 30 Este 0 -- -- 33
2019-06-04 14:00:00 30 13 Este 26 Este 0 -- -- 30
2019-06-04 13:00:00 28.2 10 Este 20 Este 0 -- -- 34
2019-06-04 12:00:00 26 6 Sudeste 14 Sudeste 0 -- -- 39
2019-06-04 11:00:00 24.2 6 Sudeste 12 Sudeste 0 -- -- 42
2019-06-04 10:00:00 21.2 3 Nordeste 9 Este 0 -- -- 49
2019-06-04 09:00:00 17.3 4 Sudoeste 12 Sudoeste 0 -- -- 60
2019-06-04 08:00:00 14.2 10 Oeste 15 Oeste 0 -- -- 70
2019-06-04 07:00:00 12.8 7 Oeste 12 Oeste 0 -- -- 73
2019-06-04 06:00:00 13.3 9 Oeste 16 Oeste 0 -- -- 70
2019-06-04 05:00:00 13.7 11 Oeste 15 Oeste 0 -- -- 69
2019-06-04 04:00:00 14.8 4 Oeste 15 Oeste 0 -- -- 64
2019-06-04 03:00:00 15.9 9 Oeste 12 Oeste 0 -- -- 62
2019-06-04 02:00:00 17.9 5 Oeste 8 Oeste 0 -- -- 61
2019-06-04 01:00:00 19.3 5 Sudoeste 13 Este 0 -- -- 53
2019-06-04 00:00:00 20.2 4 Nordeste 12 Nordeste 0 -- -- 49
2019-06-03 23:00:00 21.4 6 Nordeste 13 Este 0 -- -- 44
2019-06-03 22:00:00 23.8 8 Este 19 Este 0 -- -- 42
2019-06-03 21:00:00 26.2 13 Este 21 Este 0 -- -- 38
2019-06-03 20:00:00 28.3 9 Sudeste 22 Sudeste 0 -- -- 30
2019-06-03 19:00:00 29.9 11 Sudeste 25 Sudeste 0 -- -- 32
2019-06-03 18:00:00 30.7 10 Sudeste 33 Este 0 -- -- 32
2019-06-03 17:00:00 30.6 15 Este 30 Este 0 -- -- 26
2019-06-03 16:00:00 31.3 15 Este 26 Este 0 -- -- 23
2019-06-03 15:00:00 30.7 14 Este 28 Nordeste 0 -- -- 24
2019-06-03 14:00:00 29.2 11 Sudeste 24 Sudeste 0 -- -- 27
2019-06-03 13:00:00 27.6 11 Este 23 Este 0 -- -- 30
2019-06-03 12:00:00 25.7 10 Este 18 Sudeste 0 -- -- 31
2019-06-03 11:00:00 23.9 7 Este 14 Este 0 -- -- 32
2019-06-03 10:00:00 21.2 3 Nordeste 10 Oeste 0 -- -- 41
2019-06-03 09:00:00 17.1 6 Sudoeste 9 Sudoeste 0 -- -- 58
2019-06-03 08:00:00 13.7 6 Oeste 12 Oeste 0 -- -- 65
2019-06-03 07:00:00 13.1 10 Oeste 17 Oeste 0 -- -- 65
2019-06-03 06:00:00 12.7 13 Oeste 18 Oeste 0 -- -- 66
2019-06-03 05:00:00 13 6 Oeste 15 Oeste 0 -- -- 64
2019-06-03 04:00:00 13.8 11 Sudoeste 17 Oeste 0 -- -- 61
2019-06-03 03:00:00 15 10 Sudoeste 14 Oeste 0 -- -- 57
2019-06-03 02:00:00 16.2 8 Oeste 10 Oeste 0 -- -- 54
2019-06-03 01:00:00 17.5 4 Oeste 6 Sudoeste 0 -- -- 51
2019-06-03 00:00:00 19.1 2 Nordeste 10 Nordeste 0 -- -- 45
2019-06-02 23:00:00 20.4 6 Este 14 Este 0 -- -- 40
2019-06-02 22:00:00 22.1 10 Este 22 Este 0 -- -- 36
2019-06-02 21:00:00 24.2 17 Este 26 Este 0 -- -- 32
2019-06-02 20:00:00 26.6 15 Este 27 Este 0 -- -- 27
2019-06-02 19:00:00 28.2 14 Este 28 Este 0 -- -- 24
2019-06-02 18:00:00 29.1 15 Este 28 Este 0 -- -- 22
2019-06-02 17:00:00 29.9 12 Este 25 Este 0 -- -- 21
2019-06-02 16:00:00 29.9 12 Este 23 Este 0 -- -- 20
2019-06-02 15:00:00 29.2 10 Este 26 Este 0 -- -- 21
2019-06-02 14:00:00 28 10 Este 23 Este 0 -- -- 22
2019-06-02 13:00:00 26.9 10 Nordeste 20 Nordeste 0 -- -- 25
2019-06-02 12:00:00 25.3 7 Sudeste 17 Sudeste 0 -- -- 27
2019-06-02 11:00:00 23.5 6 Sudeste 13 Sudeste 0 -- -- 29
2019-06-02 10:00:00 20.3 4 Este 10 Oeste 0 -- -- 40
2019-06-02 09:00:00 16.2 8 Oeste 14 Sudoeste 0 -- -- 52
2019-06-02 08:00:00 12.3 7 Oeste 14 Oeste 0 -- -- 61
2019-06-02 07:00:00 11.5 10 Oeste 21 Oeste 0 -- -- 61
2019-06-02 06:00:00 11.9 13 Oeste 21 Oeste 0 -- -- 59
2019-06-02 05:00:00 12.1 13 Oeste 18 Oeste 0 -- -- 58
2019-06-02 04:00:00 12.8 14 Oeste 19 Oeste 0 -- -- 56
2019-06-02 03:00:00 13.3 13 Oeste 17 Oeste 0 -- -- 54
2019-06-02 02:00:00 14.4 11 Oeste 15 Oeste 0 -- -- 52
2019-06-02 01:00:00 15.8 4 Sudoeste 7 Oeste 0 -- -- 49
2019-06-02 00:00:00 17.2 3 Norte 6 Noroeste 0 -- -- 44
2019-06-01 23:00:00 18.6 4 Nordeste 13 Este 0 -- -- 41
2019-06-01 22:00:00 20.9 9 Este 22 Este 0 -- -- 34
2019-06-01 21:00:00 22.7 13 Este 27 Este 0 -- -- 29
2019-06-01 20:00:00 24.6 14 Este 27 Este 0 -- -- 26
2019-06-01 19:00:00 26 17 Este 31 Este 0 -- -- 24
2019-06-01 18:00:00 27 14 Este 28 Este 0 -- -- 23
2019-06-01 17:00:00 27.6 13 Sudeste 27 Este 0 -- -- 25
2019-06-01 16:00:00 27.9 12 Este 25 Este 0 -- -- 23
2019-06-01 15:00:00 27.3 10 Sudeste 22 Sudeste 0 -- -- 23
2019-06-01 14:00:00 26.5 10 Este 23 Este 0 -- -- 24
2019-06-01 13:00:00 25.2 9 Sudeste 21 Este 0 -- -- 25
2019-06-01 12:00:00 23.9 7 Sudeste 20 Este 0 -- -- 29
2019-06-01 11:00:00 22.9 5 Nordeste 11 Este 0 -- -- 35
2019-06-01 10:00:00 19.7 3 Nordeste 10 Oeste 0 -- -- 43
2019-06-01 09:00:00 15.8 8 Oeste 15 Oeste 0 -- -- 62
2019-06-01 08:00:00 12.1 11 Oeste 15 Oeste 0 -- -- 71
2019-06-01 07:00:00 11.3 8 Oeste 16 Oeste 0 -- -- 71
2019-06-01 06:00:00 11.8 12 Oeste 19 Oeste 0 -- -- 69
2019-06-01 05:00:00 12.2 8 Oeste 15 Oeste 0 -- -- 69
2019-06-01 04:00:00 12.9 9 Oeste 15 Oeste 0 -- -- 67
2019-06-01 03:00:00 13.6 10 Oeste 14 Sudoeste 0 -- -- 67
2019-06-01 02:00:00 14.5 11 Oeste 13 Oeste 0 -- -- 65
2019-06-01 01:00:00 15.8 7 Oeste 9 Oeste 0 -- -- 62
2019-06-01 00:00:00 16.9 4 Noroeste 5 Noroeste 0 -- -- 58
2019-05-31 23:00:00 18.2 3 Nordeste 14 Este 0 -- -- 53
2019-05-31 22:00:00 19.8 9 Este 18 Sudeste 0 -- -- 47
2019-05-31 21:00:00 21.5 8 Este 23 Este 0 -- -- 44
2019-05-31 20:00:00 23 13 Este 24 Este 0 -- -- 40
2019-05-31 19:00:00 24.3 15 Este 28 Este 0 -- -- 39
2019-05-31 18:00:00 25.4 14 Este 27 Este 0 -- -- 36
2019-05-31 17:00:00 26.1 19 Este 30 Este 0 -- -- 34
2019-05-31 16:00:00 26.6 14 Este 33 Este 0 -- -- 34
2019-05-31 15:00:00 26.4 12 Este 30 Este 0 -- -- 33
2019-05-31 14:00:00 25.7 11 Este 27 Este 0 -- -- 36
2019-05-31 13:00:00 24.2 11 Sudeste 23 Este 0 -- -- 36
2019-05-31 12:00:00 23.3 9 Este 21 Este 0 -- -- 37
2019-05-31 11:00:00 21.3 9 Sudeste 18 Este 1.6 -- -- 45
2019-05-31 10:00:00 20 6 Sudoeste 14 Oeste 0 -- -- 56
2019-05-31 09:00:00 16.4 12 Oeste 20 Sudoeste 0 -- -- 70
2019-05-31 08:00:00 13.1 10 Oeste 17 Oeste 0 -- -- 79
2019-05-31 07:00:00 11.7 10 Oeste 19 Oeste 0 -- -- 82
2019-05-31 06:00:00 11.6 13 Oeste 21 Oeste 0 -- -- 84
2019-05-31 05:00:00 12.1 14 Oeste 19 Oeste 0 -- -- 82
2019-05-31 04:00:00 12.7 10 Oeste 16 Oeste 0 -- -- 79
2019-05-31 03:00:00 13.7 8 Oeste 13 Oeste 0 -- -- 77
2019-05-31 02:00:00 14.6 4 Noroeste 5 Noroeste 0 -- -- 76
2019-05-31 01:00:00 15.3 2 Norte 6 Nordeste 0 -- -- 73
2019-05-31 00:00:00 16.5 3 Este 6 Nordeste 0 -- -- 67
2019-05-30 23:00:00 17.9 5 Este 15 Este 0 -- -- 62
2019-05-30 22:00:00 19.2 6 Sudeste 19 Este 0 -- -- 54
2019-05-30 21:00:00 21 10 Sudeste 25 Este 0 -- -- 48
2019-05-30 20:00:00 23.1 13 Este 24 Este 0 -- -- 43
2019-05-30 19:00:00 24.5 17 Este 29 Este 0 -- -- 37
2019-05-30 18:00:00 25.5 13 Este 27 Este 0 -- -- 35
2019-05-30 17:00:00 25.9 12 Este 26 Este 0 -- -- 35
2019-05-30 16:00:00 25.8 12 Este 26 Este 0 -- -- 38
2019-05-30 15:00:00 25.1 10 Este 28 Este 0 -- -- 40
2019-05-30 14:00:00 24.1 13 Este 25 Este 0 -- -- 40
2019-05-30 13:00:00 23.1 6 Este 21 Este 0 -- -- 43
2019-05-30 12:00:00 21.6 6 Este 17 Este 0 -- -- 48
2019-05-30 11:00:00 20.1 6 Este 14 Este 0 -- -- 55
2019-05-30 10:00:00 17.8 5 Este 11 Este 0 -- -- 66
2019-05-30 09:00:00 14.6 3 Oeste 13 Oeste 0 -- -- 69
2019-05-30 08:00:00 11.7 9 Oeste 15 Oeste 0 -- -- 78
2019-05-30 07:00:00 10.9 10 Oeste 18 Oeste 0 -- -- 78
2019-05-30 06:00:00 11.1 13 Oeste 20 Oeste 0 -- -- 76
2019-05-30 05:00:00 11.3 11 Sudoeste 17 Oeste 0 -- -- 73
2019-05-30 04:00:00 12.1 10 Oeste 15 Oeste 0 -- -- 69
2019-05-30 03:00:00 12.4 9 Oeste 14 Oeste 0 -- -- 68
2019-05-30 02:00:00 13.5 4 Sudoeste 5 Sudoeste 0 -- -- 66
2019-05-30 01:00:00 14.2 0 Calma 4 Nordeste 0 -- -- 63
2019-05-30 00:00:00 15.2 3 Nordeste 8 Nordeste 0 -- -- 57
2019-05-29 23:00:00 16.9 8 Este 19 Este 0 -- -- 48
2019-05-29 22:00:00 18 15 Este 26 Este 0 -- -- 51
2019-05-29 21:00:00 19.7 12 Este 24 Este 0 -- -- 47
2019-05-29 20:00:00 20.7 15 Este 28 Este 0 -- -- 45
2019-05-29 19:00:00 21.7 14 Este 28 Este 0 -- -- 43
2019-05-29 18:00:00 22.2 19 Este 33 Este 0 -- -- 45
2019-05-29 17:00:00 23.4 17 Este 38 Este 0 -- -- 44
2019-05-29 16:00:00 25.7 14 Este 29 Sudeste 0 -- -- 41
2019-05-29 15:00:00 25.7 11 Este 22 Este 0 -- -- 39
2019-05-29 14:00:00 24.6 6 Sudeste 17 Sudeste 0 -- -- 42
2019-05-29 13:00:00 23.5 7 Nordeste 22 Este 0 -- -- 48
2019-05-29 12:00:00 21.8 9 Nordeste 20 Nordeste 0 -- -- 51
2019-05-29 11:00:00 20.6 5 Nordeste 18 Este 0 -- -- 55
2019-05-29 10:00:00 18.3 7 Este 16 Nordeste 0 -- -- 64
2019-05-29 09:00:00 17.2 7 Nordeste 12 Nordeste 0 -- -- 72
2019-05-29 08:00:00 14.7 6 Oeste 18 Oeste 0 -- -- 85
2019-05-29 07:00:00 13.8 13 Oeste 18 Oeste 0 -- -- 88
2019-05-29 06:00:00 14.7 10 Sudoeste 14 Oeste 0 -- -- 88
2019-05-29 05:00:00 15.7 5 Oeste 13 Oeste 0 -- -- 88
2019-05-29 04:00:00 15.7 8 Oeste 13 Oeste 0 -- -- 89
2019-05-29 03:00:00 16.4 4 Oeste 8 Oeste 0 -- -- 88
2019-05-29 02:00:00 17.1 3 Noroeste 6 Sudeste 0 -- -- 85
2019-05-29 01:00:00 17.6 2 Este 13 Este 0 -- -- 85
2019-05-29 00:00:00 17.8 7 Este 17 Este 0 -- -- 83
2019-05-28 23:00:00 18.7 10 Este 25 Este 0 -- -- 78
2019-05-28 22:00:00 19.5 13 Este 25 Este 0 -- -- 73
2019-05-28 21:00:00 21 16 Este 30 Este 0 -- -- 69
2019-05-28 20:00:00 23.1 17 Este 28 Este 0 -- -- 62
2019-05-28 19:00:00 24.8 16 Este 27 Este 0 -- -- 56
2019-05-28 18:00:00 26.1 17 Este 34 Este 0 -- -- 52
2019-05-28 17:00:00 28.1 19 Este 33 Este 0 -- -- 45
2019-05-28 16:00:00 28.7 14 Este 31 Sudeste 0 -- -- 40
2019-05-28 15:00:00 27.8 9 Este 27 Nordeste 0 -- -- 41
2019-05-28 14:00:00 27.2 8 Sudeste 24 Nordeste 0 -- -- 43
2019-05-28 13:00:00 26 11 Este 23 Este 0 -- -- 45
2019-05-28 12:00:00 24.9 10 Este 22 Este 0 -- -- 47
2019-05-28 11:00:00 23.1 5 Este 13 Nordeste 0 -- -- 57
2019-05-28 10:00:00 19.9 2 Nordeste 8 Norte 0 -- -- 74
2019-05-28 09:00:00 16.7 0 Calma 6 Sudoeste 0 -- -- 84
2019-05-28 08:00:00 14.8 3 Oeste 11 Oeste 0 -- -- 91
2019-05-28 07:00:00 14.4 10 Oeste 15 Oeste 0 -- -- 91
2019-05-28 06:00:00 15 6 Oeste 12 Oeste 0 -- -- 90
2019-05-28 05:00:00 15.6 6 Oeste 10 Oeste 0 -- -- 89
2019-05-28 04:00:00 16.2 6 Oeste 9 Oeste 0 -- -- 86
2019-05-28 03:00:00 17.1 2 Nordeste 7 Nordeste 0 -- -- 83
2019-05-28 02:00:00 17.9 5 Nordeste 18 Este 0 -- -- 80
2019-05-28 01:00:00 18.5 9 Nordeste 15 Este 0 -- -- 76
2019-05-28 00:00:00 19.4 3 Nordeste 14 Nordeste 0 -- -- 71
2019-05-27 23:00:00 20.1 5 Nordeste 22 Oeste 0 -- -- 69
2019-05-27 22:00:00 20.8 3 Nordeste 13 Nordeste 0.2 -- -- 69
2019-05-27 21:00:00 22.4 3 Nordeste 15 Este 0.2 -- -- 66
2019-05-27 20:00:00 24.2 3 Este 21 Sur 0.2 -- -- 63
2019-05-27 19:00:00 27.3 12 Sur 31 Sur 0 -- -- 41
2019-05-27 18:00:00 29.8 14 Sur 26 Sur 0 -- -- 35
2019-05-27 17:00:00 31.3 11 Sur 27 Sudeste 0 -- -- 32
2019-05-27 16:00:00 31.3 6 Nordeste 22 Este 0 -- -- 27
2019-05-27 15:00:00 30.4 10 Este 30 Sudeste 0 -- -- 29
2019-05-27 14:00:00 30.2 9 Nordeste 24 Noroeste 0 -- -- 26
2019-05-27 13:00:00 28.2 7 Noroeste 20 Noroeste 0 -- -- 34
2019-05-27 12:00:00 25.8 7 Noroeste 23 Noroeste 0 -- -- 41
2019-05-27 11:00:00 23.8 9 Noroeste 20 Noroeste 0 -- -- 48
2019-05-27 10:00:00 20.6 5 Oeste 16 Noroeste 0 -- -- 58
2019-05-27 09:00:00 16.9 8 Oeste 18 Oeste 0 -- -- 71
2019-05-27 08:00:00 13.6 14 Oeste 24 Oeste 0 -- -- 79
2019-05-27 07:00:00 12.5 15 Oeste 22 Oeste 0 -- -- 83
2019-05-27 06:00:00 12.5 14 Oeste 19 Oeste 0 -- -- 83
2019-05-27 05:00:00 12.9 12 Oeste 16 Oeste 0 -- -- 82
2019-05-27 04:00:00 13.6 10 Oeste 15 Oeste 0 -- -- 79
2019-05-27 03:00:00 14.4 10 Oeste 13 Oeste 0 -- -- 75
2019-05-27 02:00:00 16.4 3 Sur 11 Nordeste 0 -- -- 80
2019-05-27 01:00:00 16.9 4 Este 13 Este 0 -- -- 75
2019-05-27 00:00:00 17.2 5 Nordeste 9 Este 0 -- -- 63
2019-05-26 23:00:00 18.4 3 Este 9 Nordeste 0 -- -- 59
2019-05-26 22:00:00 20.3 4 Este 8 Nordeste 0 -- -- 52
2019-05-26 21:00:00 22.7 4 Sur 16 Sudoeste 0 -- -- 45
2019-05-26 20:00:00 23.6 10 Sur 31 Sudoeste 0 -- -- 45
2019-05-26 19:00:00 23.7 13 Sur 37 Sur 0 -- -- 44
2019-05-26 18:00:00 24.7 20 Sur 40 Sur 0 -- -- 42
2019-05-26 17:00:00 26.1 15 Sur 35 Sur 0 -- -- 39
2019-05-26 16:00:00 26.4 15 Sur 36 Sudeste 0 -- -- 38
2019-05-26 15:00:00 26.5 14 Sur 33 Sur 0 -- -- 38
2019-05-26 14:00:00 25.8 18 Sudeste 40 Sudeste 0 -- -- 38
2019-05-26 13:00:00 25.8 13 Sudeste 31 Sudeste 0 -- -- 39
2019-05-26 12:00:00 24 14 Sudeste 24 Sudeste 0 -- -- 44
2019-05-26 11:00:00 21.7 7 Este 14 Este 0 -- -- 53
2019-05-26 10:00:00 18.1 4 Nordeste 8 Nordeste 0 -- -- 67
2019-05-26 09:00:00 15 5 Sudoeste 11 Oeste 0 -- -- 80
2019-05-26 08:00:00 11.9 8 Sudoeste 13 Oeste 0 -- -- 89
2019-05-26 07:00:00 11.1 7 Sudoeste 10 Oeste 0 -- -- 88
2019-05-26 06:00:00 11.8 4 Oeste 18 Oeste 0 -- -- 88
2019-05-26 05:00:00 11.8 10 Oeste 15 Oeste 0 -- -- 90
2019-05-26 04:00:00 12.2 12 Oeste 15 Sudoeste 0 -- -- 87
2019-05-26 03:00:00 13 9 Oeste 14 Oeste 0 -- -- 85
2019-05-26 02:00:00 14 6 Oeste 9 Sudoeste 0 -- -- 82
2019-05-26 01:00:00 15.1 0 Calma 8 Nordeste 0 -- -- 83
2019-05-26 00:00:00 15.5 3 Nordeste 10 Nordeste 0 -- -- 78
2019-05-25 23:00:00 17 4 Este 14 Este 0 -- -- 71
2019-05-25 22:00:00 18.9 2 Sur 8 Este 0 -- -- 59
2019-05-25 21:00:00 20.6 5 Este 13 Sudeste 0 -- -- 53
2019-05-25 20:00:00 21.9 8 Sudeste 14 Este 0 -- -- 49
2019-05-25 19:00:00 21.9 6 Este 13 Este 0 -- -- 48
2019-05-25 18:00:00 21.5 5 Este 18 Este 0 -- -- 51
2019-05-25 17:00:00 22.2 8 Este 22 Nordeste 0 -- -- 49
2019-05-25 16:00:00 21.7 9 Este 20 Sudeste 0 -- -- 51
2019-05-25 15:00:00 20.7 8 Este 22 Este 0 -- -- 54
2019-05-25 14:00:00 21.5 6 Norte 17 Norte 0 -- -- 50
2019-05-25 13:00:00 20.3 9 Noroeste 18 Norte 0 -- -- 56
2019-05-25 12:00:00 18.8 6 Sudoeste 23 Noroeste 0 -- -- 60
2019-05-25 11:00:00 17.4 14 Noroeste 33 Norte 0 -- -- 63
2019-05-25 10:00:00 16.9 18 Norte 35 Noroeste 0 -- -- 65
2019-05-25 09:00:00 15.3 13 Noroeste 31 Noroeste 0 -- -- 67
2019-05-25 08:00:00 13.7 15 Noroeste 25 Noroeste 0 -- -- 71
2019-05-25 07:00:00 12.1 5 Sudoeste 18 Oeste 0 -- -- 75
2019-05-25 06:00:00 12.4 9 Oeste 27 Oeste 0 -- -- 71
2019-05-25 05:00:00 12.1 9 Oeste 17 Sudoeste 0 -- -- 76
2019-05-25 04:00:00 12.2 12 Oeste 22 Oeste 0 -- -- 77
2019-05-25 03:00:00 12.4 14 Oeste 20 Sudoeste 0 -- -- 80
2019-05-25 02:00:00 12.4 9 Oeste 21 Oeste 0 -- -- 84
2019-05-25 01:00:00 12.7 12 Oeste 18 Sudoeste 0 -- -- 84
2019-05-25 00:00:00 12.9 13 Oeste 20 Oeste 0 -- -- 85
2019-05-24 23:00:00 13.4 14 Oeste 18 Sudoeste 0 -- -- 85
2019-05-24 22:00:00 14.2 7 Oeste 9 Oeste 0 -- -- 80
2019-05-24 21:00:00 14.8 0 Calma 22 Este 0 -- -- 79
2019-05-24 20:00:00 14.9 14 Este 27 Este 1.8 -- -- 72
2019-05-24 19:00:00 18 14 Este 34 Este 0.2 -- -- 53
2019-05-24 18:00:00 19.5 17 Este 37 Este 0.2 -- -- 52
2019-05-24 17:00:00 21.7 23 Este 35 Este 0 -- -- 39
2019-05-24 16:00:00 23.2 18 Este 33 Este 0 -- -- 47
2019-05-24 15:00:00 23.5 17 Este 33 Este 0 -- -- 52
2019-05-24 14:00:00 22.6 12 Este 25 Este 0 -- -- 57
2019-05-24 13:00:00 22.1 13 Este 23 Este 0 -- -- 45
2019-05-24 12:00:00 21 13 Este 20 Este 0 -- -- 41
2019-05-24 11:00:00 20 6 Este 12 Este 0 -- -- 46
2019-05-24 10:00:00 18.3 2 Oeste 11 Oeste 0 -- -- 62
2019-05-24 09:00:00 16.5 8 Oeste 15 Oeste 0 -- -- 70
2019-05-24 08:00:00 14.5 10 Oeste 15 Oeste 0 -- -- 78
2019-05-24 07:00:00 13.9 10 Oeste 14 Oeste 0 -- -- 79
2019-05-24 06:00:00 14.1 9 Sudoeste 14 Oeste 0 -- -- 82
2019-05-24 05:00:00 15 9 Oeste 12 Oeste 0 -- -- 80
2019-05-24 04:00:00 16 6 Oeste 8 Oeste 0 -- -- 77
2019-05-24 03:00:00 17.2 3 Noroeste 5 Noroeste 0 -- -- 74
2019-05-24 02:00:00 18 4 Sudoeste 6 Sudoeste 0 -- -- 73
2019-05-24 01:00:00 18.5 0 Calma 7 Nordeste 0 -- -- 70
2019-05-24 00:00:00 19.3 3 Este 10 Nordeste 0 -- -- 69
2019-05-23 23:00:00 20.1 4 Nordeste 14 Este 0 -- -- 66
2019-05-23 22:00:00 22.1 9 Este 17 Este 0 -- -- 54
2019-05-23 21:00:00 24.3 8 Sudeste 21 Sudeste 0 -- -- 25
2019-05-23 20:00:00 26.1 8 Sudeste 31 Sudeste 0 -- -- 28
2019-05-23 19:00:00 26.9 14 Sudeste 30 Sudeste 0 -- -- 29
2019-05-23 18:00:00 27.8 9 Sur 30 Sudeste 0 -- -- 27
2019-05-23 17:00:00 29.4 10 Sur 28 Sudeste 0 -- -- 25
2019-05-23 16:00:00 30.7 11 Sudeste 29 Sudeste 0 -- -- 25
2019-05-23 15:00:00 29.8 11 Este 24 Este 0 -- -- 27
2019-05-23 14:00:00 28 9 Este 20 Este 0 -- -- 32
2019-05-23 13:00:00 26.2 9 Este 20 Sudeste 0 -- -- 37
2019-05-23 12:00:00 24.3 8 Sudeste 17 Sudeste 0 -- -- 38
2019-05-23 11:00:00 22 6 Sudeste 10 Sudeste 0 -- -- 45
2019-05-23 10:00:00 18.8 3 Nordeste 7 Oeste 0 -- -- 56
2019-05-23 09:00:00 15.3 5 Oeste 13 Oeste 0 -- -- 76
2019-05-23 08:00:00 12.4 8 Oeste 15 Oeste 0 -- -- 83
2019-05-23 07:00:00 11.4 9 Oeste 14 Oeste 0 -- -- 85
2019-05-23 06:00:00 12.1 7 Sudoeste 13 Sudoeste 0 -- -- 82
2019-05-23 05:00:00 12.8 7 Oeste 12 Oeste 0 -- -- 77
2019-05-23 04:00:00 14.1 6 Oeste 8 Sudoeste 0 -- -- 78
2019-05-23 03:00:00 15.1 0 Calma 4 Norte 0 -- -- 76
2019-05-23 02:00:00 16.3 0 Calma 5 Sudeste 0 -- -- 72
2019-05-23 01:00:00 17 2 Este 7 Nordeste 0 -- -- 69
2019-05-23 00:00:00 17.8 4 Nordeste 10 Este 0 -- -- 64
2019-05-22 23:00:00 19.2 4 Nordeste 16 Sudeste 0 -- -- 51
2019-05-22 22:00:00 20.4 6 Sur 19 Sur 0 -- -- 38
2019-05-22 21:00:00 22 8 Sur 24 Sur 0 -- -- 43
2019-05-22 20:00:00 23.8 9 Sur 27 Sudeste 0 -- -- 36
2019-05-22 19:00:00 25.2 16 Sudeste 29 Sudoeste 0 -- -- 33
2019-05-22 18:00:00 27.1 12 Sur 28 Sudeste 0 -- -- 30
2019-05-22 17:00:00 28.1 13 Sudeste 28 Sudeste 0 -- -- 28
2019-05-22 16:00:00 28.9 8 Sur 22 Sudeste 0 -- -- 26
2019-05-22 15:00:00 27.2 10 Este 24 Sudeste 0 -- -- 29
2019-05-22 14:00:00 26.6 11 Sudeste 24 Sudeste 0 -- -- 29
2019-05-22 13:00:00 24.2 8 Este 19 Este 0 -- -- 40
2019-05-22 12:00:00 22.2 7 Este 18 Sudeste 0 -- -- 50
2019-05-22 11:00:00 20.5 8 Este 16 Sudeste 0 -- -- 56
2019-05-22 10:00:00 17.9 3 Este 8 Este 0 -- -- 71
2019-05-22 09:00:00 14.3 2 Oeste 13 Oeste 0 -- -- 85
2019-05-22 08:00:00 11.7 8 Oeste 13 Oeste 0 -- -- 90
2019-05-22 07:00:00 11.1 4 Oeste 16 Oeste 0 -- -- 90
2019-05-22 06:00:00 11.2 12 Oeste 19 Oeste 0 -- -- 90
2019-05-22 05:00:00 11.6 7 Oeste 12 Oeste 0 -- -- 89
2019-05-22 04:00:00 12.3 6 Oeste 15 Oeste 0 -- -- 87
2019-05-22 03:00:00 12.9 8 Oeste 20 Oeste 0 -- -- 87
2019-05-22 02:00:00 13.2 12 Oeste 18 Oeste 0 -- -- 86
2019-05-22 01:00:00 13.8 8 Sudoeste 10 Sudoeste 0 -- -- 83
2019-05-22 00:00:00 14.8 0 Calma 4 Sur 0 -- -- 80
2019-05-21 23:00:00 16 2 Sudeste 15 Este 0 -- -- 75
2019-05-21 22:00:00 16.5 6 Este 13 Este 0 -- -- 72
2019-05-21 21:00:00 17.6 3 Noroeste 8 Este 0 -- -- 69
2019-05-21 20:00:00 18.3 9 Este 19 Este 0 -- -- 67
2019-05-21 19:00:00 18.1 12 Este 33 Nordeste 0 -- -- 78
2019-05-21 18:00:00 20.6 12 Sudeste 32 Sur 0 -- -- 65
2019-05-21 17:00:00 21.6 19 Sur 35 Sur 0 -- -- 63
2019-05-21 16:00:00 22.9 13 Sudeste 23 Sudeste 0 -- -- 52
2019-05-21 15:00:00 23.2 12 Este 23 Este 0 -- -- 50
2019-05-21 14:00:00 23.6 10 Este 23 Este 0 -- -- 53
2019-05-21 13:00:00 22.5 6 Sudeste 18 Nordeste 0 -- -- 56
2019-05-21 12:00:00 20.6 9 Este 18 Este 0 -- -- 60
2019-05-21 11:00:00 19.9 6 Este 13 Este 0 -- -- 64
2019-05-21 10:00:00 17.9 4 Nordeste 9 Nordeste 0 -- -- 80
2019-05-21 09:00:00 16.8 4 Nordeste 8 Nordeste 0 -- -- 87
2019-05-21 08:00:00 15.8 2 Nordeste 6 Este 0 -- -- 85
2019-05-21 07:00:00 15.5 3 Este 5 Sudeste 0 -- -- 86
2019-05-21 06:00:00 15.4 0 Calma 8 Este 0 -- -- 86
2019-05-21 05:00:00 15.8 0 Calma 5 Oeste 0 -- -- 87
2019-05-21 04:00:00 15.8 0 Calma 4 Noroeste 0 -- -- 84
2019-05-21 03:00:00 15.9 2 Noroeste 4 Noroeste 0 -- -- 85
2019-05-21 02:00:00 16.4 2 Sudoeste 4 Nordeste 0 -- -- 83
2019-05-21 01:00:00 16.7 3 Nordeste 8 Este 0 -- -- 84
2019-05-21 00:00:00 17 4 Nordeste 14 Nordeste 0 -- -- 82